createdAt,value
2017-09-16T00:01:01.875Z,1.42
2017-09-16T00:03:29.384Z,1.92
2017-09-16T00:05:56.926Z,1.67
2017-09-16T00:08:25.204Z,5.62
2017-09-16T00:10:52.732Z,2.78
2017-09-16T00:13:23.494Z,1.70
2017-09-16T00:15:51.059Z,2.10
2017-09-16T00:18:18.573Z,1.55
2017-09-16T00:20:46.100Z,1.70
2017-09-16T00:23:13.616Z,1.92
2017-09-16T00:25:44.370Z,2.05
2017-09-16T00:28:11.875Z,2.20
2017-09-16T00:30:40.163Z,1.55
2017-09-16T00:33:07.673Z,1.60
2017-09-16T00:35:35.198Z,1.48
2017-09-16T00:38:02.710Z,1.75
2017-09-16T00:40:30.236Z,1.52
2017-09-16T00:42:57.732Z,1.60
2017-09-16T00:45:26.025Z,1.90
2017-09-16T00:47:53.531Z,2.25
2017-09-16T00:50:21.080Z,1.40
2017-09-16T00:52:48.589Z,1.60
2017-09-16T00:55:17.102Z,1.85
2017-09-16T00:57:44.645Z,1.60
2017-09-16T01:00:12.213Z,1.42
2017-09-16T01:02:39.745Z,1.50
2017-09-16T01:05:07.316Z,1.52
2017-09-16T01:07:34.863Z,1.40
2017-09-16T01:10:03.162Z,1.55
2017-09-16T01:12:30.693Z,2.10
2017-09-16T01:14:58.287Z,1.70
2017-09-16T01:17:25.820Z,1.52
2017-09-16T01:19:53.380Z,1.37
2017-09-16T01:22:20.914Z,1.70
2017-09-16T01:24:48.526Z,1.50
2017-09-16T01:27:16.054Z,1.58
2017-09-16T01:29:43.616Z,1.95
2017-09-16T01:32:11.146Z,1.60
2017-09-16T01:34:38.689Z,1.45
2017-09-16T01:37:06.213Z,1.45
2017-09-16T01:39:33.765Z,1.70
2017-09-16T01:42:01.298Z,2.08
2017-09-16T01:44:29.609Z,1.80
2017-09-16T01:46:57.117Z,2.08
2017-09-16T01:49:24.650Z,2.03
2017-09-16T01:51:52.219Z,2.00
2017-09-16T01:54:23.122Z,1.45
2017-09-16T01:56:50.706Z,1.40
2017-09-16T01:59:18.270Z,1.90
2017-09-16T02:01:45.789Z,1.40
2017-09-16T02:04:13.381Z,2.00
2017-09-16T02:06:40.933Z,1.95
2017-09-16T02:09:08.465Z,2.00
2017-09-16T02:11:35.990Z,1.90
2017-09-16T02:14:03.547Z,2.00
2017-09-16T02:16:31.082Z,2.10
2017-09-16T02:18:58.632Z,2.10
2017-09-16T02:21:26.152Z,2.30
2017-09-16T02:23:56.752Z,2.00
2017-09-16T02:26:24.250Z,1.98
2017-09-16T02:28:51.861Z,2.10
2017-09-16T02:31:19.361Z,2.65
2017-09-16T02:33:46.888Z,2.15
2017-09-16T02:36:14.405Z,1.73
2017-09-16T02:38:41.925Z,2.05
2017-09-16T02:41:10.204Z,1.98
2017-09-16T02:43:38.495Z,2.15
2017-09-16T02:46:06.011Z,2.17
2017-09-16T02:48:34.313Z,2.60
2017-09-16T02:51:02.582Z,2.25
2017-09-16T02:53:30.878Z,2.35
2017-09-16T02:55:58.378Z,2.10
2017-09-16T02:58:25.905Z,2.20
2017-09-16T03:00:53.417Z,2.10
2017-09-16T03:03:20.958Z,2.08
2017-09-16T03:05:48.471Z,1.77
2017-09-16T03:08:16.002Z,2.00
2017-09-16T03:10:43.501Z,2.35
2017-09-16T03:13:11.960Z,2.45
2017-09-16T03:15:42.637Z,2.05
2017-09-16T03:18:10.161Z,2.35
2017-09-16T03:20:37.687Z,1.90
2017-09-16T03:23:09.637Z,2.10
2017-09-16T03:25:37.137Z,2.08
2017-09-16T03:28:04.661Z,2.60
2017-09-16T03:30:32.153Z,2.12
2017-09-16T03:32:59.673Z,1.90
2017-09-16T03:35:27.173Z,2.03
2017-09-16T03:37:54.684Z,2.22
2017-09-16T03:40:22.188Z,2.65
2017-09-16T03:42:49.704Z,1.70
2017-09-16T03:45:17.204Z,2.20
2017-09-16T03:47:44.720Z,2.30
2017-09-16T03:50:12.216Z,1.73
2017-09-16T03:52:39.704Z,2.60
2017-09-16T03:55:07.223Z,2.50
2017-09-16T03:57:35.481Z,2.17
2017-09-16T04:00:03.000Z,2.58
2017-09-16T04:02:42.332Z,2.17
2017-09-16T04:05:09.858Z,2.12
2017-09-16T04:07:38.129Z,2.10
2017-09-16T04:10:06.393Z,2.20
2017-09-16T04:12:34.644Z,2.35
2017-09-16T04:15:02.180Z,2.45
2017-09-16T04:17:29.690Z,2.30
2017-09-16T04:19:57.976Z,1.70
2017-09-16T04:22:26.260Z,1.85
2017-09-16T04:24:53.772Z,2.17
2017-09-16T04:27:21.268Z,2.30
2017-09-16T04:29:48.787Z,1.87
2017-09-16T04:32:16.285Z,1.70
2017-09-16T04:34:43.804Z,1.90
2017-09-16T04:37:11.313Z,2.12
2017-09-16T04:39:38.842Z,2.15
2017-09-16T04:42:07.092Z,1.67
2017-09-16T04:44:34.609Z,2.28
2017-09-16T04:47:02.112Z,2.05
2017-09-16T04:49:29.636Z,2.25
2017-09-16T04:51:57.190Z,2.00
2017-09-16T04:54:24.732Z,1.90
2017-09-16T04:56:52.265Z,1.95
2017-09-16T04:59:20.559Z,2.30
2017-09-16T05:01:48.053Z,2.25
2017-09-16T05:04:18.736Z,2.17
2017-09-16T05:06:47.012Z,1.80
2017-09-16T05:09:15.314Z,2.10
2017-09-16T05:11:42.815Z,2.05
2017-09-16T05:14:10.329Z,2.45
2017-09-16T05:16:37.828Z,2.10
2017-09-16T05:19:05.350Z,1.87
2017-09-16T05:21:32.836Z,2.40
2017-09-16T05:24:03.726Z,2.30
2017-09-16T05:26:31.228Z,1.95
2017-09-16T05:28:58.761Z,2.35
2017-09-16T05:31:26.271Z,2.03
2017-09-16T05:33:53.808Z,1.98
2017-09-16T05:36:21.317Z,2.45
2017-09-16T05:38:48.835Z,2.60
2017-09-16T05:41:16.354Z,2.20
2017-09-16T05:43:44.804Z,2.15
2017-09-16T05:46:12.337Z,2.78
2017-09-16T05:48:39.858Z,3.15
2017-09-16T05:51:07.374Z,2.90
2017-09-16T05:53:35.670Z,3.50
2017-09-16T05:56:03.182Z,3.20
2017-09-16T05:58:30.719Z,2.55
2017-09-16T06:00:58.230Z,2.70
2017-09-16T06:03:26.517Z,3.00
2017-09-16T06:05:54.020Z,2.87
2017-09-16T06:08:22.140Z,2.75
2017-09-16T06:10:50.429Z,2.65
2017-09-16T06:13:17.971Z,2.80
2017-09-16T06:15:46.241Z,3.33
2017-09-16T06:18:14.553Z,2.83
2017-09-16T06:20:42.064Z,2.60
2017-09-16T06:23:22.302Z,3.08
2017-09-16T06:25:49.799Z,3.05
2017-09-16T06:28:18.096Z,3.40
2017-09-16T06:30:45.621Z,3.15
2017-09-16T06:33:13.926Z,2.67
2017-09-16T06:35:41.437Z,2.67
2017-09-16T06:38:12.213Z,3.30
2017-09-16T06:40:39.729Z,3.08
2017-09-16T06:43:07.246Z,2.60
2017-09-16T06:45:34.957Z,2.85
2017-09-16T06:48:02.502Z,2.75
2017-09-16T06:50:30.009Z,2.80
2017-09-16T06:52:57.829Z,2.85
2017-09-16T06:55:25.365Z,2.62
2017-09-16T06:57:54.278Z,2.70
2017-09-16T07:00:21.794Z,2.70
2017-09-16T07:02:49.317Z,2.47
2017-09-16T07:05:17.592Z,3.07
2017-09-16T07:07:45.891Z,2.80
2017-09-16T07:10:13.423Z,2.07
2017-09-16T07:12:40.944Z,2.37
2017-09-16T07:15:08.450Z,2.27
2017-09-16T07:17:36.753Z,2.07
2017-09-16T07:20:04.270Z,2.30
2017-09-16T07:22:31.806Z,2.20
2017-09-16T07:24:59.331Z,2.22
2017-09-16T07:27:26.857Z,1.73
2017-09-16T07:29:54.402Z,2.10
2017-09-16T07:32:22.914Z,1.70
2017-09-16T07:34:50.463Z,2.40
2017-09-16T07:37:18.006Z,2.60
2017-09-16T07:39:45.575Z,2.70
2017-09-16T07:42:13.859Z,2.97
2017-09-16T07:44:41.388Z,3.00
2017-09-16T07:47:08.940Z,2.70
2017-09-16T07:49:36.437Z,3.00
2017-09-16T07:52:04.721Z,2.30
2017-09-16T07:54:32.242Z,2.80
2017-09-16T07:56:59.769Z,3.00
2017-09-16T07:59:27.276Z,3.73
2017-09-16T08:01:55.582Z,3.30
2017-09-16T08:04:23.085Z,3.60
2017-09-16T08:06:50.616Z,3.30
2017-09-16T08:09:18.202Z,2.83
2017-09-16T08:11:45.782Z,2.90
2017-09-16T08:14:14.133Z,2.50
2017-09-16T08:16:41.722Z,2.17
2017-09-16T08:19:10.081Z,2.70
2017-09-16T08:21:37.719Z,2.47
2017-09-16T08:24:15.305Z,3.00
2017-09-16T08:26:42.895Z,3.30
2017-09-16T08:29:11.281Z,3.17
2017-09-16T08:31:39.645Z,3.80
2017-09-16T08:34:07.967Z,3.63
2017-09-16T08:36:35.740Z,4.00
2017-09-16T08:39:03.311Z,4.00
2017-09-16T08:41:30.915Z,3.20
2017-09-16T08:43:59.226Z,4.03
2017-09-16T08:46:26.780Z,4.20
2017-09-16T08:48:55.079Z,3.60
2017-09-16T08:51:22.724Z,4.70
2017-09-16T08:53:50.278Z,4.37
2017-09-16T08:56:17.856Z,3.53
2017-09-16T08:58:45.410Z,3.83
2017-09-16T09:01:12.945Z,5.17
2017-09-16T09:03:41.237Z,4.53
2017-09-16T09:06:08.774Z,4.57
2017-09-16T09:08:37.067Z,3.40
2017-09-16T09:11:04.609Z,3.60
2017-09-16T09:13:32.160Z,4.07
2017-09-16T09:15:59.719Z,4.17
2017-09-16T09:18:28.006Z,3.30
2017-09-16T09:20:57.281Z,4.43
2017-09-16T09:23:25.770Z,3.40
2017-09-16T09:25:53.475Z,3.50
2017-09-16T09:28:21.024Z,4.17
2017-09-16T09:30:48.581Z,3.70
2017-09-16T09:33:16.174Z,3.23
2017-09-16T09:35:43.714Z,3.20
2017-09-16T09:38:11.309Z,3.80
2017-09-16T09:40:38.988Z,3.87
2017-09-16T09:43:06.614Z,3.77
2017-09-16T09:45:34.267Z,3.50
2017-09-16T09:48:01.821Z,4.20
2017-09-16T09:50:29.471Z,3.80
2017-09-16T09:52:57.243Z,3.43
2017-09-16T09:55:25.018Z,4.20
2017-09-16T09:57:52.785Z,4.13
2017-09-16T10:00:26.465Z,4.40
2017-09-16T10:02:55.113Z,4.07
2017-09-16T10:05:23.037Z,4.33
2017-09-16T10:07:50.584Z,4.67
2017-09-16T10:10:18.176Z,4.00
2017-09-16T10:12:49.422Z,4.03
2017-09-16T10:15:17.004Z,4.23
2017-09-16T10:17:44.557Z,3.60
2017-09-16T10:20:12.079Z,3.53
2017-09-16T10:22:40.384Z,3.90
2017-09-16T10:25:07.917Z,4.27
2017-09-16T10:27:35.473Z,3.63
2017-09-16T10:30:03.095Z,3.60
2017-09-16T10:32:30.632Z,3.63
2017-09-16T10:34:58.200Z,3.43
2017-09-16T10:37:25.782Z,3.90
2017-09-16T10:39:53.319Z,3.50
2017-09-16T10:42:20.879Z,4.10
2017-09-16T10:44:48.410Z,3.93
2017-09-16T10:47:17.338Z,4.00
2017-09-16T10:49:44.848Z,3.93
2017-09-16T10:52:12.390Z,4.60
2017-09-16T10:54:39.900Z,3.20
2017-09-16T10:57:07.542Z,2.83
2017-09-16T10:59:35.843Z,2.73
2017-09-16T11:02:03.386Z,2.83
2017-09-16T11:04:31.660Z,3.17
2017-09-16T11:07:00.956Z,2.90
2017-09-16T11:09:30.086Z,2.40
2017-09-16T11:11:57.669Z,2.27
2017-09-16T11:14:25.200Z,2.30
2017-09-16T11:16:52.815Z,2.47
2017-09-16T11:19:20.939Z,2.80
2017-09-16T11:21:48.539Z,2.43
2017-09-16T11:24:16.052Z,3.07
2017-09-16T11:26:43.626Z,2.90
2017-09-16T11:29:13.613Z,2.83
2017-09-16T11:31:41.922Z,2.63
2017-09-16T11:34:09.432Z,2.70
2017-09-16T11:36:36.953Z,2.80
2017-09-16T11:39:04.506Z,2.47
2017-09-16T11:41:32.120Z,2.80
2017-09-16T11:43:59.629Z,3.40
2017-09-16T11:46:27.186Z,2.53
2017-09-16T11:48:54.707Z,2.50
2017-09-16T11:51:22.256Z,3.30
2017-09-16T11:53:49.771Z,2.50
2017-09-16T11:56:17.295Z,3.00
2017-09-16T11:58:45.582Z,3.20
2017-09-16T12:01:13.933Z,2.80
2017-09-16T12:03:41.485Z,2.03
2017-09-16T12:06:09.004Z,2.37
2017-09-16T12:08:36.521Z,2.10
2017-09-16T12:11:04.046Z,2.10
2017-09-16T12:13:31.554Z,2.10
2017-09-16T12:15:59.892Z,2.23
2017-09-16T12:18:27.418Z,2.50
2017-09-16T12:20:54.972Z,1.90
2017-09-16T12:23:22.481Z,1.90
2017-09-16T12:25:50.000Z,1.73
2017-09-16T12:28:17.509Z,1.50
2017-09-16T12:30:45.037Z,1.80
2017-09-16T12:33:12.549Z,1.67
2017-09-16T12:35:40.848Z,2.10
2017-09-16T12:38:08.362Z,2.00
2017-09-16T12:40:35.902Z,2.10
2017-09-16T12:43:03.434Z,2.13
2017-09-16T12:45:30.991Z,2.70
2017-09-16T12:47:58.514Z,1.93
2017-09-16T12:50:26.985Z,2.50
2017-09-16T12:52:54.490Z,2.47
2017-09-16T12:55:22.033Z,2.30
2017-09-16T12:57:50.305Z,2.57
2017-09-16T13:00:20.639Z,1.90
2017-09-16T13:02:48.158Z,2.27
2017-09-16T13:05:15.713Z,2.37
2017-09-16T13:07:43.230Z,2.20
2017-09-16T13:10:10.763Z,1.80
2017-09-16T13:12:39.047Z,3.00
2017-09-16T13:15:07.350Z,2.23
2017-09-16T13:17:35.750Z,2.43
2017-09-16T13:20:03.324Z,2.20
2017-09-16T13:22:30.854Z,2.25
2017-09-16T13:24:58.391Z,2.93
2017-09-16T13:27:26.699Z,4.85
2017-09-16T13:29:54.244Z,3.85
2017-09-16T13:32:21.754Z,2.95
2017-09-16T13:34:49.295Z,2.20
2017-09-16T13:37:16.808Z,2.40
2017-09-16T13:39:45.114Z,2.73
2017-09-16T13:42:12.646Z,2.47
2017-09-16T13:44:40.951Z,2.80
2017-09-16T13:47:08.506Z,2.35
2017-09-16T13:49:36.113Z,2.50
2017-09-16T13:52:03.749Z,2.40
2017-09-16T13:54:31.361Z,2.37
2017-09-16T13:56:59.651Z,2.35
2017-09-16T13:59:27.218Z,2.30
2017-09-16T14:01:54.797Z,2.40
2017-09-16T14:04:22.359Z,2.72
2017-09-16T14:06:49.902Z,3.00
2017-09-16T14:09:17.466Z,2.80
2017-09-16T14:11:45.038Z,2.55
2017-09-16T14:14:12.631Z,2.45
2017-09-16T14:16:40.204Z,2.40
2017-09-16T14:19:07.791Z,2.70
2017-09-16T14:21:35.403Z,2.40
2017-09-16T14:24:02.966Z,3.20
2017-09-16T14:26:30.576Z,3.35
2017-09-16T14:28:58.918Z,3.10
2017-09-16T14:31:26.624Z,2.92
2017-09-16T14:33:54.163Z,3.05
2017-09-16T14:36:21.763Z,2.83
2017-09-16T14:38:49.355Z,3.72
2017-09-16T14:41:16.943Z,2.20
2017-09-16T14:43:44.457Z,3.40
2017-09-16T14:46:12.005Z,3.35
2017-09-16T14:48:39.534Z,2.67
2017-09-16T14:51:07.861Z,3.12
2017-09-16T14:53:35.398Z,3.28
2017-09-16T14:56:03.025Z,3.12
2017-09-16T14:58:30.665Z,3.97
2017-09-16T15:01:04.049Z,3.92
2017-09-16T15:03:34.252Z,4.53
2017-09-16T15:06:01.846Z,3.55
2017-09-16T15:08:29.420Z,3.62
2017-09-16T15:10:57.137Z,2.72
2017-09-16T15:13:24.669Z,2.78
2017-09-16T15:15:52.265Z,1.67
2017-09-16T15:18:29.734Z,2.40
2017-09-16T15:20:57.359Z,2.00
2017-09-16T15:23:24.919Z,2.08
2017-09-16T15:25:54.449Z,2.22
2017-09-16T15:28:21.987Z,4.50
2017-09-16T15:30:50.311Z,6.22
2017-09-16T15:33:35.358Z,2.00
2017-09-16T15:36:02.925Z,2.33
2017-09-16T15:38:30.471Z,5.32
2017-09-16T15:40:58.047Z,6.65
2017-09-16T15:43:25.700Z,12.63
2017-09-16T15:45:53.270Z,9.48
2017-09-16T15:48:20.816Z,2.70
2017-09-16T15:50:48.386Z,2.40
2017-09-16T15:53:15.919Z,2.50
2017-09-16T15:55:43.496Z,2.80
2017-09-16T15:58:11.034Z,3.70
2017-09-16T16:00:38.594Z,2.30
2017-09-16T16:03:07.216Z,2.70
2017-09-16T16:05:34.749Z,2.78
2017-09-16T16:08:02.285Z,2.55
2017-09-16T16:10:30.605Z,4.95
2017-09-16T16:12:58.377Z,3.45
2017-09-16T16:15:25.919Z,2.90
2017-09-16T16:17:54.409Z,2.10
2017-09-16T16:20:21.964Z,2.58
2017-09-16T16:22:59.762Z,2.35
2017-09-16T16:25:27.378Z,2.25
2017-09-16T16:27:55.675Z,1.80
2017-09-16T16:30:23.255Z,1.70
2017-09-16T16:32:50.887Z,1.73
2017-09-16T16:38:01.219Z,2.90
2017-09-16T16:40:28.762Z,2.10
2017-09-16T16:42:56.342Z,1.70
2017-09-16T16:45:23.883Z,1.20
2017-09-16T16:47:51.470Z,1.60
2017-09-16T16:50:19.026Z,1.50
2017-09-16T16:52:46.560Z,1.45
2017-09-16T16:55:14.115Z,1.40
2017-09-16T16:57:41.663Z,1.45
2017-09-16T17:00:09.197Z,1.50
2017-09-16T17:02:50.522Z,1.23
2017-09-16T17:05:18.295Z,1.20
2017-09-16T17:07:46.042Z,1.27
2017-09-16T17:10:13.697Z,1.52
2017-09-16T17:12:41.327Z,1.52
2017-09-16T17:15:08.900Z,1.35
2017-09-16T17:17:36.437Z,1.60
2017-09-16T17:20:04.046Z,1.95
2017-09-16T17:22:31.653Z,1.42
2017-09-16T17:24:59.980Z,1.37
2017-09-16T17:27:27.558Z,1.67
2017-09-16T17:29:55.102Z,1.33
2017-09-16T17:32:22.640Z,1.42
2017-09-16T17:37:32.679Z,1.52
2017-09-16T17:40:00.253Z,2.35
2017-09-16T17:42:28.754Z,2.92
2017-09-16T17:44:59.162Z,2.10
2017-09-16T17:47:26.734Z,2.50
2017-09-16T17:49:54.284Z,1.60
2017-09-16T17:52:22.557Z,1.70
2017-09-16T17:54:51.048Z,1.10
2017-09-16T17:57:18.617Z,1.30
2017-09-16T17:59:46.179Z,1.30
2017-09-16T18:02:13.718Z,3.50
2017-09-16T18:04:42.039Z,4.53
2017-09-16T18:07:09.800Z,3.53
2017-09-16T18:09:37.378Z,3.72
2017-09-16T18:12:04.999Z,4.72
2017-09-16T18:14:32.587Z,6.55
2017-09-16T18:17:00.137Z,6.90
2017-09-16T18:19:27.730Z,5.80
2017-09-16T18:21:55.352Z,4.20
2017-09-16T18:24:22.921Z,2.10
2017-09-16T18:26:50.458Z,2.37
2017-09-16T18:29:18.063Z,2.10
2017-09-16T18:31:46.364Z,2.95
2017-09-16T18:34:13.981Z,2.55
2017-09-16T18:36:41.522Z,3.10
2017-09-16T18:39:09.134Z,3.28
2017-09-16T18:41:36.743Z,5.37
2017-09-16T18:44:04.491Z,2.37
2017-09-16T18:46:32.028Z,4.40
2017-09-16T18:49:00.812Z,3.45
2017-09-16T18:51:28.507Z,2.62
2017-09-16T18:53:56.065Z,3.00
2017-09-16T18:56:24.397Z,3.58
2017-09-16T18:58:51.956Z,4.50
2017-09-16T19:01:19.539Z,6.15
2017-09-16T19:03:47.144Z,6.95
2017-09-16T19:06:15.441Z,8.10
2017-09-16T19:08:43.001Z,7.97
2017-09-16T19:11:10.552Z,7.57
2017-09-16T19:13:38.116Z,6.82
2017-09-16T19:16:05.804Z,7.93
2017-09-16T19:18:33.401Z,6.97
2017-09-16T19:21:00.968Z,5.28
2017-09-16T19:23:28.531Z,6.50
2017-09-16T19:25:56.089Z,6.65
2017-09-16T19:28:24.433Z,6.82
2017-09-16T19:30:51.969Z,6.95
2017-09-16T19:33:19.596Z,6.60
2017-09-16T19:35:47.136Z,6.43
2017-09-16T19:38:14.700Z,5.72
2017-09-16T19:40:42.291Z,5.25
2017-09-16T19:43:10.602Z,4.80
2017-09-16T19:45:38.185Z,5.55
2017-09-16T19:48:05.761Z,4.90
2017-09-16T19:50:33.335Z,4.10
2017-09-16T19:53:00.911Z,3.67
2017-09-16T19:55:28.597Z,3.92
2017-09-16T19:57:56.173Z,3.85
2017-09-16T20:00:23.737Z,4.43
2017-09-16T20:02:51.274Z,6.05
2017-09-16T20:05:18.806Z,5.50
2017-09-16T20:07:47.143Z,5.50
2017-09-16T20:10:14.742Z,4.82
2017-09-16T20:12:42.329Z,5.12
2017-09-16T20:15:09.853Z,4.57
2017-09-16T20:17:37.387Z,5.20
2017-09-16T20:20:04.941Z,4.30
2017-09-16T20:22:32.490Z,4.20
2017-09-16T20:25:00.071Z,3.80
2017-09-16T20:27:27.679Z,3.37
2017-09-16T20:29:55.234Z,4.12
2017-09-16T20:32:23.554Z,3.37
2017-09-16T20:34:51.102Z,4.43
2017-09-16T20:37:18.643Z,3.47
2017-09-16T20:39:46.237Z,4.30
2017-09-16T20:42:13.762Z,3.33
2017-09-16T20:44:41.352Z,3.92
2017-09-16T20:47:08.890Z,3.53
2017-09-16T20:49:36.437Z,4.07
2017-09-16T20:52:04.739Z,4.00
2017-09-16T20:54:32.350Z,3.60
2017-09-16T20:56:59.879Z,4.30
2017-09-16T20:59:27.417Z,4.62
2017-09-16T21:01:54.964Z,3.80
2017-09-16T21:04:23.305Z,3.60
2017-09-16T21:06:50.847Z,3.22
2017-09-16T21:09:18.381Z,3.75
2017-09-16T21:11:45.959Z,2.87
2017-09-16T21:14:13.536Z,2.75
2017-09-16T21:16:41.087Z,2.80
2017-09-16T21:19:08.631Z,2.95
2017-09-16T21:21:36.162Z,2.72
2017-09-16T21:24:03.733Z,2.62
2017-09-16T21:26:31.342Z,3.00
2017-09-16T21:28:58.863Z,2.97
2017-09-16T21:31:26.459Z,3.00
2017-09-16T21:33:54.002Z,3.03
2017-09-16T21:36:21.840Z,3.45
2017-09-16T21:38:49.393Z,3.12
2017-09-16T21:41:17.709Z,2.20
2017-09-16T21:43:45.239Z,2.40
2017-09-16T21:46:13.623Z,3.22
2017-09-16T21:48:41.146Z,2.97
2017-09-16T21:51:08.665Z,2.90
2017-09-16T21:53:36.193Z,2.25
2017-09-16T21:56:04.494Z,2.70
2017-09-16T21:58:32.040Z,2.90
2017-09-16T22:00:59.723Z,2.65
2017-09-16T22:03:27.385Z,3.55
2017-09-16T22:05:55.016Z,3.85
2017-09-16T22:08:23.313Z,3.60
2017-09-16T22:10:50.881Z,3.20
2017-09-16T22:13:19.755Z,3.00
2017-09-16T22:15:48.130Z,2.97
2017-09-16T22:18:15.673Z,3.30
2017-09-16T22:20:43.310Z,2.50
2017-09-16T22:23:10.903Z,2.15
2017-09-16T22:25:39.199Z,2.40
2017-09-16T22:28:06.727Z,3.05
2017-09-16T22:30:34.281Z,2.30
2017-09-16T22:33:02.691Z,2.30
2017-09-16T22:35:30.237Z,2.40
2017-09-16T22:37:57.838Z,3.17
2017-09-16T22:40:25.380Z,3.42
2017-09-16T22:42:54.307Z,3.92
2017-09-16T22:45:21.937Z,3.75
2017-09-16T22:47:50.176Z,3.40
2017-09-16T22:50:17.738Z,4.00
2017-09-16T22:52:45.290Z,3.97
2017-09-16T22:55:12.906Z,4.87
2017-09-16T22:57:40.523Z,4.35
2017-09-16T23:00:08.044Z,3.70
2017-09-16T23:02:35.606Z,3.50
2017-09-16T23:05:05.974Z,3.35
2017-09-16T23:07:33.514Z,3.17
2017-09-16T23:10:01.054Z,3.25
2017-09-16T23:12:28.624Z,3.70
2017-09-16T23:14:56.230Z,3.15
2017-09-16T23:17:24.530Z,3.83
2017-09-16T23:19:52.179Z,3.80
2017-09-16T23:22:19.734Z,4.32
2017-09-16T23:24:48.078Z,5.25
2017-09-16T23:27:15.637Z,4.30
2017-09-16T23:29:43.246Z,4.55
2017-09-16T23:32:10.755Z,4.90
2017-09-16T23:34:38.338Z,4.22
2017-09-16T23:37:05.886Z,4.05
2017-09-16T23:39:33.477Z,3.78
2017-09-16T23:42:01.776Z,4.55
2017-09-16T23:44:29.306Z,3.55
2017-09-16T23:46:57.638Z,4.07
2017-09-16T23:49:25.206Z,3.85
2017-09-16T23:51:52.725Z,3.97
2017-09-16T23:54:20.311Z,3.80
2017-09-16T23:56:47.849Z,3.15
2017-09-16T23:59:15.418Z,3.30
